Home > Products > Valid Products > TAF

000
FTUS43 KIND 021127
TAFIND
TAF
KIND 021127Z 0212/0318 21006KT P6SM FEW050 FEW250
     FM021800 22012KT P6SM FEW050 SCT250
     FM030900 23010KT P6SM VCTS BKN100CB
     FM031200 27009KT P6SM SCT150=



000
FTUS43 KIND 021127
TAFLAF
TAF
KLAF 021127Z 0212/0312 22003KT P6SM FEW250
     FM021800 23012KT P6SM FEW050 SCT250
     FM030800 24008KT P6SM VCTS BKN080CB
      AMD LTD TO CLD VIS AND WIND TIL 021300=



000
FTUS43 KIND 020819 AAA
TAFIND
TAF AMD
KIND 020819Z 0208/0312 22005KT P6SM SCT250
     FM021500 22010KT P6SM SCT250=



000
FTUS43 KIND 020524
TAFIND
TAF
KIND 020524Z 0206/0312 22005KT P6SM SCT250
     FM021500 22010KT P6SM SCT250=



000
FTUS43 KIND 020524
TAFLAF
TAF
KLAF 020524Z 0206/0306 24004KT P6SM SCT250
     FM021500 24007KT P6SM SCT250=



000
FTUS43 KIND 020208 AAA
TAFIND
TAF AMD
KIND 020208Z 0202/0306 23006KT P6SM SCT250
     FM021500 22012KT P6SM SCT050 SCT150=



000
FTUS43 KIND 012320
TAFIND
TAF
KIND 012320Z 0200/0306 24008KT P6SM SCT200
     FM020200 22005KT P6SM SCT250
     FM021500 22012KT P6SM SCT050 SCT150=



000
FTUS43 KIND 012320
TAFLAF
TAF
KLAF 012320Z 0200/0224 23005KT P6SM SCT200
     FM021500 23011KT P6SM SCT050 SCT150
      AMD LTD TO CLD VIS AND WIND 0201/0213=



000
FTUS43 KIND 012320
TAFIND
TAF
KIND 012320Z 0200/0306 24008KT P6SM SCT200
     FM020200 22005KT P6SM SCT250
     FM021500 22012KT P6SM SCT050 SCT150=



000
FTUS43 KIND 012320
TAFLAF
TAF
KLAF 012320Z 0200/0224 23005KT P6SM SCT200
     FM021500 23011KT P6SM SCT050 SCT150
      AMD LTD TO CLD VIS AND WIND 0201/0213=



000
FTUS43 KIND 012029 AAA
TAFIND
TAF AMD
KIND 012029Z 0120/0224 29008KT P6SM FEW150 BKN250
     FM020100 22005KT P6SM SCT250
     FM021500 22010KT P6SM SCT250=



000
FTUS43 KIND 012029 AAA
TAFIND
TAF AMD
KIND 012029Z 0120/0224 29008KT P6SM FEW150 BKN250
     FM020100 22005KT P6SM SCT250
     FM021500 22010KT P6SM SCT250=



000
FTUS43 KIND 011724
TAFLAF
TAF
KLAF 011724Z 0118/0218 30006KT P6SM FEW250
     FM012000 28006KT P6SM FEW050 SCT250
     FM020100 23003KT P6SM SCT250
     FM021500 24007KT P6SM SCT250=



000
FTUS43 KIND 011724
TAFIND
TAF
KIND 011724Z 0118/0224 30009KT P6SM FEW250
     FM012000 29009KT P6SM FEW050 SCT250
     FM020100 22005KT P6SM SCT250
     FM021500 22010KT P6SM SCT250=



000
FTUS43 KIND 011724
TAFIND
TAF
KIND 011724Z 0118/0224 30009KT P6SM FEW250
     FM012000 29009KT P6SM FEW050 SCT250
     FM020100 22005KT P6SM SCT250
     FM021500 22010KT P6SM SCT250=



000
FTUS43 KIND 011724
TAFLAF
TAF
KLAF 011724Z 0118/0218 30006KT P6SM FEW250
     FM012000 28006KT P6SM FEW050 SCT250
     FM020100 23003KT P6SM SCT250
     FM021500 24007KT P6SM SCT250=



000
FTUS43 KIND 011433 AAA
TAFIND
TAF AMD
KIND 011433Z 0115/0218 30008KT P6SM FEW250
     FM011800 30009KT P6SM SCT050
     FM020600 23005KT P6SM SCT250=



000
FTUS43 KIND 011433 AAA
TAFIND
TAF AMD
KIND 011433Z 0115/0218 30008KT P6SM FEW250
     FM011800 30009KT P6SM SCT050
     FM020600 23005KT P6SM SCT250=



000
FTUS43 KIND 011120
TAFIND
TAF
KIND 011120Z 0112/0218 30006KT P6SM FEW250
     FM011800 26010KT P6SM SCT050
     FM020600 23005KT P6SM SCT250=



000
FTUS43 KIND 011120
TAFLAF
TAF
KLAF 011120Z 0112/0212 00000KT P6SM SKC
     FM011600 27010KT P6SM SCT050
     FM020500 26004KT P6SM SCT250
      AMD LTD TO CLD VIS AND WIND TIL 011300=



000
FTUS43 KIND 011120
TAFLAF
TAF
KLAF 011120Z 0112/0212 00000KT P6SM SKC
     FM011600 27010KT P6SM SCT050
     FM020500 26004KT P6SM SCT250
      AMD LTD TO CLD VIS AND WIND TIL 011300=



000
FTUS43 KIND 011120
TAFIND
TAF
KIND 011120Z 0112/0218 30006KT P6SM FEW250
     FM011800 26010KT P6SM SCT050
     FM020600 23005KT P6SM SCT250=



000
FTUS43 KIND 010815 AAA
TAFIND
TAF AMD
KIND 010815Z 0108/0212 30004KT P6SM FEW130
     FM011600 26010KT P6SM SCT050
     FM020100 26005KT P6SM SCT100=



000
FTUS43 KIND 010520
TAFLAF
TAF
KLAF 010520Z 0106/0206 28003KT P6SM SKC
     FM011600 27010KT P6SM SCT050
     FM020100 26004KT P6SM SCT100
      AMD LTD TO CLD VIS AND WIND TIL 011300=



000
FTUS43 KIND 010520
TAFLAF
TAF
KLAF 010520Z 0106/0206 28003KT P6SM SKC
     FM011600 27010KT P6SM SCT050
     FM020100 26004KT P6SM SCT100
      AMD LTD TO CLD VIS AND WIND TIL 011300=



000
FTUS43 KIND 010520
TAFIND
TAF
KIND 010520Z 0106/0212 28006KT P6SM SKC
     FM011600 26010KT P6SM SCT050
     FM020100 26005KT P6SM SCT100=



000
FTUS43 KIND 010520
TAFIND
TAF
KIND 010520Z 0106/0212 28006KT P6SM SKC
     FM011600 26010KT P6SM SCT050
     FM020100 26005KT P6SM SCT100=



000
FTUS43 KIND 010228 AAA
TAFIND
TAF AMD
KIND 010228Z 0102/0206 28005KT P6SM SKC
     FM011600 26010KT P6SM SCT050
     FM020100 26005KT P6SM SCT100=



000
FTUS43 KIND 010228 AAA
TAFIND
TAF AMD
KIND 010228Z 0102/0206 28005KT P6SM SKC
     FM011600 26010KT P6SM SCT050
     FM020100 26005KT P6SM SCT100=



000
FTUS43 KIND 312320
TAFLAF
TAF
KLAF 312320Z 0100/0124 28007KT P6SM SKC
     FM010100 28003KT P6SM SKC
     FM011600 27010KT P6SM SCT050=



000
FTUS43 KIND 312320
TAFIND
TAF
KIND 312320Z 0100/0206 28012KT P6SM SKC
     FM010100 28005KT P6SM SKC
     FM011600 26010KT P6SM SCT050
     FM020100 26005KT P6SM SCT100=



000
FTUS43 KIND 312032 AAA
TAFIND
TAF AMD
KIND 312032Z 3121/0124 30012KT P6SM FEW060
     FM010100 28004KT P6SM SKC
     FM011330 24008KT P6SM SKC
     FM011900 26010KT P6SM SCT050=



000
FTUS43 KIND 311725
TAFLAF
TAF
KLAF 311725Z 3118/0118 26010KT P6SM SCT090
     FM010100 29002KT P6SM SKC
     FM011330 25008KT P6SM SKC=



000
FTUS43 KIND 311725
TAFIND
TAF
KIND 311725Z 3118/0124 30007KT P6SM FEW060
     FM010100 28004KT P6SM SKC
     FM011330 24008KT P6SM SKC
     FM011900 26010KT P6SM SCT050=



000
FTUS43 KIND 311725
TAFIND
TAF
KIND 311725Z 3118/0124 30007KT P6SM FEW060
     FM010100 28004KT P6SM SKC
     FM011330 24008KT P6SM SKC
     FM011900 26010KT P6SM SCT050=



000
FTUS43 KIND 311725
TAFLAF
TAF
KLAF 311725Z 3118/0118 26010KT P6SM SCT090
     FM010100 29002KT P6SM SKC
     FM011330 25008KT P6SM SKC=



000
FTUS43 KIND 311425 AAA
TAFIND
TAF AMD
KIND 311425Z 3114/0118 30006KT P6SM FEW250
     FM311800 29011KT P6SM SCT035
     FM010100 28005KT P6SM SKC=



000
FTUS43 KIND 311120
TAFLAF
TAF
KLAF 311120Z 3112/0112 27003KT P6SM SKC
     FM311600 27011KT P6SM FEW050
     FM010100 29002KT P6SM SKC=



000
FTUS43 KIND 311120
TAFIND
TAF
KIND 311120Z 3112/0118 30006KT P6SM FEW250
     FM311800 29011KT P6SM SCT050
     FM010100 28005KT P6SM SKC=



000
FTUS43 KIND 310932 AAA
TAFLAF
TAF AMD
KLAF 310932Z 3110/0106 28003KT P6SM SKC
     FM311600 27011KT P6SM FEW050
     FM010100 29002KT P6SM SKC=



000
FTUS43 KIND 310932 AAA
TAFLAF
TAF AMD
KLAF 310932Z 3110/0106 28003KT P6SM SKC
     FM311600 27011KT P6SM FEW050
     FM010100 29002KT P6SM SKC=



000
FTUS43 KIND 310815 AAA
TAFIND
TAF AMD
KIND 310815Z 3108/0112 24005KT P6SM SKC
     FM311600 27011KT P6SM FEW050
     FM010100 28005KT P6SM SKC=



000
FTUS43 KIND 310520
TAFLAF
TAF
KLAF 310520Z 3106/0106 00000KT P6SM SKC
      TEMPO 3108/3112 3SM BR
     FM311600 27011KT P6SM FEW050
     FM010100 29002KT P6SM SKC=



000
FTUS43 KIND 310520
TAFLAF
TAF
KLAF 310520Z 3106/0106 00000KT P6SM SKC
      TEMPO 3108/3112 3SM BR
     FM311600 27011KT P6SM FEW050
     FM010100 29002KT P6SM SKC=



000
FTUS43 KIND 310520
TAFIND
TAF
KIND 310520Z 3106/0112 26004KT P6SM FEW250
     FM311600 27011KT P6SM FEW050
     FM010100 28005KT P6SM SKC=



000
FTUS43 KIND 310520
TAFIND
TAF
KIND 310520Z 3106/0112 26004KT P6SM FEW250
     FM311600 27011KT P6SM FEW050
     FM010100 28005KT P6SM SKC=



000
FTUS43 KIND 310216 AAA
TAFIND
TAF AMD
KIND 310216Z 3102/0106 28005KT P6SM SKC
     FM311600 27011KT P6SM FEW050
     FM010100 27006KT P6SM SKC=



000
FTUS43 KIND 302320
TAFIND
TAF
KIND 302320Z 3100/0106 30008KT P6SM SKC
     FM310200 26005KT P6SM SKC
     FM311600 27011KT P6SM FEW050
     FM010100 27006KT P6SM SKC=



000
FTUS43 KIND 302320
TAFLAF
TAF
KLAF 302320Z 3100/3124 30005KT P6SM SKC
     FM310100 28002KT P6SM SKC
     FM311600 27011KT P6SM FEW050
      AMD LTD TO CLD VIS AND WIND TIL 301300=



000
FTUS43 KIND 302023 AAA
TAFIND
TAF AMD
KIND 302023Z 3020/3124 32012G18KT P6SM FEW060
     FM310100 27006KT P6SM SKC
     FM311330 26010KT P6SM SKC
     FM311930 26012KT P6SM SCT035 SCT250=



000
FTUS43 KIND 302023 AAA
TAFIND
TAF AMD
KIND 302023Z 3020/3124 32012G18KT P6SM FEW060
     FM310100 27006KT P6SM SKC
     FM311330 26010KT P6SM SKC
     FM311930 26012KT P6SM SCT035 SCT250=



000
FTUS43 KIND 301725
TAFLAF
TAF
KLAF 301725Z 3018/3118 30007KT P6SM SKC
     FM310100 26002KT P6SM SKC
     FM311330 26006KT P6SM SKC
      AMD LTD TO CLD VIS AND WIND TIL 301300=



000
FTUS43 KIND 301725
TAFIND
TAF
KIND 301725Z 3018/3124 32010KT P6SM SCT200
     FM310100 27006KT P6SM SKC
     FM311330 26010KT P6SM SKC
     FM311930 26012KT P6SM SCT035 SCT250=



000
FTUS43 KIND 301508 AAA
TAFIND
TAF AMD
KIND 301508Z 3015/3118 31008KT P6SM SCT250
     FM301600 30011KT P6SM FEW250
     FM310100 27006KT P6SM SKC=



000
FTUS43 KIND 301508 AAA
TAFIND
TAF AMD
KIND 301508Z 3015/3118 31008KT P6SM SCT250
     FM301600 30011KT P6SM FEW250
     FM310100 27006KT P6SM SKC=



    US Dept of Commerce
    National Oceanic and Atmospheric Administration
    National Weather Service
    1325 East West Highway
    Silver Spring, MD 20910
    Page Author: NWS Internet Services Team
Disclaimer
Information Quality
Credits
Glossary
Privacy Policy
Freedom of Information Act (FOIA)
About Us
Career Opportunities